createdAt,value
2022-09-28T00:01:19.102Z,4.17
2022-09-28T00:06:25.720Z,4.00
2022-09-28T00:11:33.508Z,5.28
2022-09-28T00:16:41.031Z,3.80
2022-09-28T00:21:46.213Z,4.68
2022-09-28T00:26:55.343Z,2.95
2022-09-28T00:32:03.196Z,2.73
2022-09-28T00:37:09.371Z,2.85
2022-09-28T00:42:19.100Z,2.72
2022-09-28T00:47:49.983Z,3.70
2022-09-28T00:52:57.937Z,2.65
2022-09-28T00:58:07.485Z,2.70
2022-09-28T01:03:14.387Z,3.25
2022-09-28T01:08:21.185Z,3.17
2022-09-28T01:13:29.276Z,3.50
2022-09-28T01:18:40.247Z,3.35
2022-09-28T01:24:12.583Z,3.05
2022-09-28T01:29:27.675Z,3.45
2022-09-28T01:34:37.280Z,3.22
2022-09-28T01:39:44.788Z,3.13
2022-09-28T01:44:54.185Z,3.13
2022-09-28T01:50:04.075Z,2.97
2022-09-28T01:55:14.852Z,3.45
2022-09-28T02:00:23.616Z,2.97
2022-09-28T02:05:33.519Z,2.80
2022-09-28T02:10:43.978Z,3.20
2022-09-28T02:15:54.943Z,3.60
2022-09-28T02:21:04.205Z,3.33
2022-09-28T02:26:13.253Z,3.37
2022-09-28T02:31:20.907Z,2.90
2022-09-28T02:36:26.798Z,3.30
2022-09-28T02:41:43.084Z,7.32
2022-09-28T02:46:56.754Z,3.60
2022-09-28T02:52:14.580Z,3.38
2022-09-28T02:57:27.918Z,3.53
2022-09-28T03:02:40.245Z,2.97
2022-09-28T03:07:49.892Z,3.15
2022-09-28T03:12:56.166Z,3.45
2022-09-28T03:18:03.912Z,3.10
2022-09-28T03:23:25.525Z,3.33
2022-09-28T03:28:30.666Z,3.30
2022-09-28T03:33:38.451Z,3.55
2022-09-28T03:38:43.946Z,3.45
2022-09-28T03:43:48.945Z,3.80
2022-09-28T03:48:56.554Z,4.00
2022-09-28T03:54:01.540Z,4.35
2022-09-28T03:59:06.994Z,4.70
2022-09-28T04:04:17.002Z,5.65
2022-09-28T04:14:27.686Z,4.43
2022-09-28T04:19:35.349Z,3.50
2022-09-28T04:24:42.282Z,3.55
2022-09-28T04:29:47.275Z,3.35
2022-09-28T04:34:55.012Z,3.17
2022-09-28T04:39:59.988Z,2.92
2022-09-28T04:45:05.005Z,2.47
2022-09-28T04:50:13.038Z,2.97
2022-09-28T04:55:18.529Z,2.63
2022-09-28T05:00:23.620Z,2.22
2022-09-28T05:05:31.324Z,2.00
2022-09-28T05:10:37.582Z,3.33
2022-09-28T05:15:44.581Z,2.78
2022-09-28T05:20:52.191Z,3.90
2022-09-28T05:25:57.181Z,4.07
2022-09-28T05:31:03.096Z,4.40
2022-09-28T05:36:12.561Z,4.13
2022-09-28T05:41:17.576Z,5.60
2022-09-28T05:46:23.942Z,5.60
2022-09-28T05:51:31.639Z,4.85
2022-09-28T05:56:37.529Z,4.50
2022-09-28T06:01:42.620Z,4.50
2022-09-28T06:06:50.317Z,4.32
2022-09-28T06:11:56.406Z,5.75
2022-09-28T06:17:01.469Z,2.97
2022-09-28T06:22:09.243Z,3.92
2022-09-28T06:27:14.211Z,3.50
2022-09-28T06:32:19.664Z,6.18
2022-09-28T06:37:27.883Z,5.22
2022-09-28T06:42:32.874Z,10.65
2022-09-28T06:47:37.921Z,15.65
2022-09-28T06:52:45.506Z,8.35
2022-09-28T06:57:50.925Z,3.10
2022-09-28T07:02:55.991Z,2.40
2022-09-28T07:08:03.873Z,2.10
2022-09-28T07:13:14.879Z,2.05
2022-09-28T07:18:33.867Z,2.00
2022-09-28T07:23:51.778Z,2.00
2022-09-28T07:28:59.420Z,1.80
2022-09-28T07:34:04.434Z,1.13
2022-09-28T07:39:12.376Z,1.08
2022-09-28T07:44:19.158Z,1.23
2022-09-28T07:49:24.275Z,1.08
2022-09-28T07:54:33.101Z,1.50
2022-09-28T07:59:38.170Z,1.40
2022-09-28T08:04:43.214Z,0.85
2022-09-28T08:09:51.278Z,0.80
2022-09-28T08:14:56.241Z,0.80
2022-09-28T08:20:14.334Z,1.40
2022-09-28T08:25:21.994Z,1.50
2022-09-28T08:30:27.541Z,1.30
2022-09-28T08:35:32.547Z,1.48
2022-09-28T08:40:45.079Z,1.92
2022-09-28T08:45:50.273Z,1.00
2022-09-28T08:50:59.211Z,1.30
2022-09-28T08:56:08.683Z,1.03
2022-09-28T09:01:16.877Z,0.98
2022-09-28T09:06:27.710Z,0.63
2022-09-28T09:11:48.980Z,1.50
2022-09-28T09:17:00.658Z,7.07
2022-09-28T09:22:16.871Z,1.30
2022-09-28T09:27:39.215Z,0.55
2022-09-28T09:32:59.259Z,2.78
2022-09-28T09:38:12.994Z,1.17
2022-09-28T09:43:40.531Z,3.38
2022-09-28T09:48:50.475Z,1.42
2022-09-28T09:54:00.368Z,0.88
2022-09-28T09:59:10.997Z,0.80
2022-09-28T10:04:20.441Z,0.90
2022-09-28T10:14:34.126Z,0.50
2022-09-28T10:19:39.962Z,0.70
2022-09-28T10:24:48.107Z,1.25
2022-09-28T10:29:59.180Z,0.50
2022-09-28T10:35:17.740Z,0.90
2022-09-28T10:40:31.255Z,2.17
2022-09-28T10:45:40.740Z,1.77
2022-09-28T10:56:01.570Z,2.38
2022-09-28T11:01:12.192Z,1.20
2022-09-28T11:06:17.341Z,0.70
2022-09-28T11:11:22.868Z,0.57
2022-09-28T11:16:32.762Z,0.73
2022-09-28T11:21:46.188Z,2.75
2022-09-28T11:26:53.488Z,1.38
2022-09-28T11:32:06.251Z,0.73
2022-09-28T11:37:35.956Z,0.70
2022-09-28T11:42:48.217Z,0.90
2022-09-28T11:48:00.738Z,2.20
2022-09-28T11:53:17.006Z,2.50
2022-09-28T11:58:27.661Z,3.22
2022-09-28T12:03:39.812Z,0.70
2022-09-28T12:08:47.346Z,1.05
2022-09-28T12:13:53.807Z,0.80
2022-09-28T12:19:04.668Z,1.95
2022-09-28T12:24:16.360Z,1.33
2022-09-28T12:29:24.067Z,0.95
2022-09-28T12:34:31.797Z,1.05
2022-09-28T12:39:58.406Z,1.23
2022-09-28T12:45:20.132Z,1.52
2022-09-28T12:50:38.804Z,2.15
2022-09-28T12:55:57.207Z,1.70
2022-09-28T13:01:09.448Z,1.60
2022-09-28T13:06:25.101Z,1.55
2022-09-28T13:11:36.247Z,2.25
2022-09-28T13:16:45.962Z,2.42
2022-09-28T13:21:59.473Z,2.22
2022-09-28T13:27:09.428Z,1.50
2022-09-28T13:32:15.328Z,1.60
2022-09-28T13:37:28.951Z,2.22
2022-09-28T13:43:03.040Z,2.28
2022-09-28T13:48:20.512Z,1.83
2022-09-28T13:53:35.289Z,2.10
2022-09-28T13:58:45.586Z,1.23
2022-09-28T14:03:58.237Z,2.17
2022-09-28T14:09:27.094Z,1.30
2022-09-28T14:14:49.011Z,1.67
2022-09-28T14:19:55.843Z,1.50
2022-09-28T14:25:12.550Z,1.67
2022-09-28T14:30:24.583Z,1.25
2022-09-28T14:35:36.108Z,1.92
2022-09-28T14:41:14.871Z,1.67
2022-09-28T14:46:37.347Z,1.60
2022-09-28T14:52:04.000Z,2.65
2022-09-28T14:57:20.237Z,2.45
2022-09-28T15:02:31.846Z,2.20
2022-09-28T15:07:48.141Z,2.15
2022-09-28T15:12:57.301Z,2.85
2022-09-28T15:18:10.982Z,2.55
2022-09-28T15:23:31.772Z,2.95
2022-09-28T15:28:46.475Z,3.00
2022-09-28T15:34:16.116Z,3.58
2022-09-28T15:39:24.042Z,4.03
2022-09-28T15:44:35.372Z,5.85
2022-09-28T15:49:44.164Z,3.53
2022-09-28T15:54:49.171Z,3.53
2022-09-28T15:59:59.728Z,3.78
2022-09-28T16:05:05.523Z,4.68
2022-09-28T16:10:33.723Z,3.83
2022-09-28T16:15:41.611Z,4.68
2022-09-28T16:20:48.271Z,4.97
2022-09-28T16:25:55.080Z,5.40
2022-09-28T16:31:08.677Z,5.47
2022-09-28T16:36:15.865Z,7.05
2022-09-28T16:41:26.100Z,6.10
2022-09-28T16:46:37.740Z,5.68
2022-09-28T16:51:42.836Z,5.57
2022-09-28T16:56:48.061Z,5.05
2022-09-28T17:01:56.805Z,5.88
2022-09-28T17:07:02.031Z,6.30
2022-09-28T17:12:13.251Z,6.50
2022-09-28T17:17:21.335Z,6.88
2022-09-28T17:22:26.552Z,6.82
2022-09-28T17:27:32.509Z,10.88
2022-09-28T17:32:44.943Z,6.25
2022-09-28T17:37:50.000Z,6.38
2022-09-28T17:42:56.267Z,7.18
2022-09-28T17:48:04.401Z,8.02
2022-09-28T17:53:09.398Z,11.45
2022-09-28T17:58:22.617Z,11.52
2022-09-28T18:03:30.217Z,11.40
2022-09-28T18:08:35.733Z,9.07
2022-09-28T18:13:40.974Z,6.75
2022-09-28T18:18:48.856Z,6.80
2022-09-28T18:23:53.848Z,8.15
2022-09-28T18:28:59.352Z,7.15
2022-09-28T18:34:07.591Z,7.78
2022-09-28T18:39:12.706Z,7.57
2022-09-28T18:44:17.870Z,8.80
2022-09-28T18:49:25.950Z,9.93
2022-09-28T18:54:30.930Z,10.15
2022-09-28T18:59:35.983Z,9.38
2022-09-28T19:04:44.307Z,9.55
2022-09-28T19:09:49.564Z,15.57
2022-09-28T19:14:54.715Z,10.70
2022-09-28T19:20:02.285Z,9.90
2022-09-28T19:25:08.504Z,9.68
2022-09-28T19:30:14.776Z,10.00
2022-09-28T19:35:22.390Z,10.15
2022-09-28T19:40:27.508Z,10.90
2022-09-28T19:45:32.503Z,11.40
2022-09-28T19:50:40.052Z,11.05
2022-09-28T19:55:45.050Z,11.15
2022-09-28T20:00:50.036Z,10.75
2022-09-28T20:06:02.606Z,14.48
2022-09-28T20:11:08.465Z,12.43
2022-09-28T20:16:14.585Z,16.23
2022-09-28T20:21:26.765Z,17.08
2022-09-28T20:26:37.419Z,14.02
2022-09-28T20:31:42.921Z,15.20
2022-09-28T20:36:50.545Z,15.75
2022-09-28T20:41:56.210Z,16.52
2022-09-28T20:47:01.322Z,18.27
2022-09-28T20:52:08.946Z,15.82
2022-09-28T20:57:20.352Z,14.45
2022-09-28T21:02:25.387Z,13.75
2022-09-28T21:07:33.067Z,12.23
2022-09-28T21:12:39.080Z,13.32
2022-09-28T21:17:44.064Z,10.55
2022-09-28T21:22:52.377Z,10.63
2022-09-28T21:27:57.367Z,9.48
2022-09-28T21:33:03.355Z,9.55
2022-09-28T21:38:10.982Z,10.38
2022-09-28T21:43:16.324Z,8.93
2022-09-28T21:48:21.410Z,9.65
2022-09-28T21:53:30.102Z,9.63
2022-09-28T21:58:36.387Z,9.15
